CheckWX is a tool to help pilots better visualize weather data.  It is not intended as a substitute for an official pre-flight weather briefing.

15:58:35 UTC

KBHK METAR
Baker Municipal Airport
Baker, Montana, USA
Current

1 hour ago

KBHK 211451Z AUTO 11014KT 10SM SCT075 BKN100 BKN120 15/13 A3022 RMK AO2 LTG DSNT E AND SE RAE28 SLP224 P0005 60027 T01500128 58003
Observed
Jul-21 @ 14:51 UTC
Wind
  • 110° at 14 KTS
Visibility
10 SM
Flight Rules
VFR
Cloud Levels
  • Scattered at 7,500' AGL
  • Broken at 10,000' AGL
  • Broken at 12,000' AGL
Temperature
15°C / 59°F
Dewpoint
13°C / 55°F
Humidity
88%
Altimeter
30.22" Hg
Pressure
1023.42 hPa
Current Rain
0.05"
Previous

1 hour ago

KBHK 211429Z AUTO 09013KT 10SM FEW026 SCT090 BKN120 14/13 A3023 RMK AO2 LTG DSNT E AND SE RAE28 P0005 T01390128
Observed
Jul-21 @ 14:29 UTC
Wind
  • 090° at 13 KTS
Visibility
10 SM
Flight Rules
VFR
Cloud Levels
  • Few at 2,600' AGL
  • Scattered at 9,000' AGL
  • Broken at 12,000' AGL
Temperature
14°C / 57°F
Dewpoint
13°C / 55°F
Humidity
94%
Altimeter
30.23" Hg
Pressure
1023.72 hPa
Current Rain
0.05"
Previous

2 hours ago

KBHK 211414Z AUTO 10009KT 8SM VCTS -RA FEW046 BKN070 OVC110 14/12 A3024 RMK AO2 LTG DSNT E AND S P0005 T01390122
Observed
Jul-21 @ 14:14 UTC
Wind
  • 100° at 9 KTS
Visibility
8 SM
Flight Rules
VFR
Conditions
Area Thunderstorm, Light Rain
Cloud Levels
  • Few at 4,600' AGL
  • Broken at 7,000' AGL
  • Overcast at 11,000' AGL
Temperature
14°C / 57°F
Dewpoint
12°C / 54°F
Humidity
88%
Altimeter
30.24" Hg
Pressure
1024.02 hPa
Current Rain
0.05"